Tiempo atmosférico en la estación meteorológica de Canfranc, Huesca (1160 m.)

Fecha
DESCASC
Temp. máxima en grados centígrados (hora)
DESCASC
Temp. mínima en grados centígrados (hora)
DESCASC
Temp. media en grados centígrados
DESCASC
Racha de viento máxima en m/sg (hora)
DESCASC
Velocidad máxima media en intervalos de 10 minutos(hora)
DESCASC
Precipitaciones diarias en mm
DESCASC
Precipitaciones de 00:00 a 06:00 en mm
DESCASC
Precipitaciones de 06:00 a 12:00 en mm
DESCASC
Precipitaciones de 12:00 a 18:00 en mm
DESCASC
Precipitaciones de 18:00 a 24:00 en mm
DESCASC
22-10-2017 11 (15:50) 6.3 (03:40) 8.7 11.39 (21:30) 5.28 (21:30) 0.2 0 0 0 0.2
21-10-2017 13.2 (13:20) 6.1 (03:10) 9.6 7.22 (21:10) 2.78 (18:40) 1 0 0 1 0
20-10-2017 15.8 (14:30) 5.8 (02:30) 10.8 3.61 (14:00) 1.11 (14:00) 0 0 0 0 0
19-10-2017 12.3 (16:00) 6.6 (00:00) 9.5 4.17 (20:00) 1.39 (20:00) 21 15 5.8 0.2 0
18-10-2017 15.2 (00:40) 9 (00:00) 12.1 8.33 (11:20) 2.78 (11:20) 24.6 4.8 3.6 10.2 6
17-10-2017 21.4 (15:50) 5.4 (00:00) 13.4 6.11 (16:00) 1.39 (16:10) 0 0 0 0 0
16-10-2017 22.9 (15:40) 7.8 (00:00) 15.3 3.89 (15:30) 0.83 (14:20) 0 0 0 0 0
15-10-2017 23 (15:40) 7.9 (00:00) 15.5 3.89 (13:30) 1.11 (13:20) 0 0 0 0 0
14-10-2017 24.1 (15:50) 8.8 (00:00) 16.5 4.72 (15:30) 1.11 (14:20) 0 0 0 0 0
13-10-2017 22.6 (15:40) 8.1 (00:00) 15.4 2.78 (16:10) 0.83 (14:40) 0 0 0 0 0
12-10-2017 22.3 (15:50) 7.3 (00:00) 14.8 3.89 (14:20) 0.83 (15:40) 0 0 0 0 0
11-10-2017 22.8 (15:50) 5.9 (00:00) 14.3 4.17 (15:20) 1.11 (13:40) 0 0 0 0 0
10-10-2017 21.4 (16:00) 4.8 (00:00) 13.1 2.78 (14:50) 1.11 (14:40) 0 0 0 0 0
09-10-2017 20.4 (15:50) 9.3 (00:00) 14.8 7.78 (14:20) 3.33 (14:10) 0 0 0 0 0
08-10-2017 21.7 (15:50) 5.6 (00:00) 13.7 8.89 (20:30) 3.61 (20:30) 0 0 0 0 0
07-10-2017 21.2 (16:00) 5.1 (00:00) 13.2 9.44 (03:50) 4.17 (00:30) 0 0 0 0 0
06-10-2017 17.8 (15:50) 9.6 (00:00) 13.7 10.28 (03:10) 4.72 (05:30) 0 0 0 0 0
05-10-2017 23.2 (16:00) 9 (00:00) 16.1 8.89 (20:20) 3.89 (18:20) 0 0 0 0 0
04-10-2017 21.6 (15:50) 8.1 (00:00) 14.9 2.78 (12:40) 0.83 (13:10) 0.2 0 0.2 0 0
03-10-2017 20.8 (16:00) 9.8 (00:00) 15.3 9.17 (10:20) 3.89 (11:20) 0 0 0 0 0
02-10-2017 20.7 (15:50) 11.6 (00:00) 16.2 7.78 (03:00) 3.61 (15:10) 0 0 0 0 0
01-10-2017 14.7 (17:30) 10 (00:00) 12.3 8.89 (20:30) 3.61 (13:00) 1.2 0 0 1 0.2
30-09-2017 15.2 (15:00) 9.5 (00:00) 12.3 5.56 (18:30) 1.94 (18:30) 9.6 0 8.4 1.2 0
29-09-2017 23.8 (15:50) 7.4 (00:00) 15.6 5.56 (19:20) 2.5 (19:20) 0 0 0 0 0
28-09-2017 22.8 (16:00) 7.1 (00:00) 14.9 2.5 (16:50) 0.83 (12:50) 0 0 0 0 0
27-09-2017 21.6 (15:50) 5.5 (00:00) 13.6 3.89 (11:10) 0.83 (12:30) 0 0 0 0 0
26-09-2017 20.6 (15:50) 6.4 (00:00) 13.5 6.11 (01:20) 2.78 (01:30) 0.2 0.2 0 0 0
25-09-2017 16.9 (16:20) 9.8 (00:00) 13.3 8.33 (17:10) 3.61 (12:30) 0.8 0.6 0.2 0 0
24-09-2017 22.9 (15:50) 7.4 (00:00) 15.1 4.44 (13:10) 1.39 (12:50) 0 0 0 0 0
23-09-2017 19.2 (15:30) 5.6 (00:00) 12.4 4.17 (12:40) 1.11 (12:50) 0.2 0 0 0.2 0

Gráficas

Temp. máximas Temp. mínimas Temp. medias Precipitaciones Rachas de viento máximas Velocidades máximas media en intervalos de 10 minutos

Datos horarios

Fecha y hora oficial Temperatura (ºC) Velocidad del viento (km/h) Dirección del viento Racha (km/h) Dirección de racha Precipitación (mm) Presión (hPa) Tendencia (hPa) Humedad (%)